Time;durP1;ratioP1;P1;durP2;ratioP2;P2;SDS_P1;SDS_P2;PMS_P1;PMS_P2;Temp;Humidity;BMP_temperature;BMP_pressure;BME280_temperature;BME280_humidity;BME280_pressure;Samples;Min_cycle;Max_cycle;Signal;HPM_P1;HPM_P2
2021/12/29 00:01:19;;;;;;;;;;;;;;;8.55;92.38;99213.94;5092876;28;19919;-85
2021/12/29 00:03:44;;;;;;;;;;;;;;;8.57;91.84;99220.91;5093113;28;19923;-85
2021/12/29 00:06:09;;;;;;;;;;;;;;;8.64;91.79;99219.06;5107123;28;19922;-85
2021/12/29 00:08:34;;;;;;;;;;;;;;;8.67;91.12;99223.41;5096068;27;19926;-86
2021/12/29 00:11:00;;;;;;;;;;;;;;;8.67;90.67;99221.66;5093536;28;20012;-85
2021/12/29 00:13:26;;;;;;;;;;;;;;;8.80;89.89;99222.31;5092412;28;19927;-85
2021/12/29 00:15:57;;;;;;;;;;;;;;;8.69;90.43;99226.88;5096673;28;19920;-85
2021/12/29 00:18:23;;;;;;;;;;;;;;;8.77;90.40;99225.00;5107253;28;19919;-83
2021/12/29 00:20:48;;;;;;;;;;;;;;;8.71;90.23;99231.25;5112258;28;20502;-84
2021/12/29 00:23:13;;;;;;;;;;;;;;;8.71;89.96;99225.97;5113290;28;19916;-84
2021/12/29 00:25:39;;;;;;;;;;;;;;;8.72;89.16;99238.22;5099205;28;20379;-84
2021/12/29 00:28:04;;;;;;;;;;;;;;;8.71;89.31;99236.50;5104743;28;20457;-85
2021/12/29 00:30:30;;;;;;;;;;;;;;;8.66;89.75;99243.56;5112482;28;19963;-84
2021/12/29 00:32:58;;;;;;;;;;;;;;;8.53;90.04;99236.75;5113048;27;20333;-84
2021/12/29 00:35:23;;;;;;;;;;;;;;;8.24;92.13;99222.22;5111858;28;19920;-85
2021/12/29 00:37:49;;;;;;;;;;;;;;;7.88;94.36;99234.91;5102644;28;20286;-84
2021/12/29 00:40:14;;;;;;;;;;;;;;;8.02;94.02;99225.09;5093123;28;19967;-84
2021/12/29 00:42:40;;;;;;;;;;;;;;;7.99;94.27;99233.03;5092521;28;20386;-83
2021/12/29 00:45:07;;;;;;;;;;;;;;;7.80;95.11;99228.84;5097510;28;19974;-84
2021/12/29 00:47:34;;;;;;;;;;;;;;;7.60;96.54;99224.72;5105410;28;19924;-83
2021/12/29 00:50:00;;;;;;;;;;;;;;;7.42;98.52;99233.63;5108489;28;19969;-84
2021/12/29 00:52:26;;;;;;;;;;;;;;;7.46;97.99;99219.59;5108978;28;20016;-83
2021/12/29 00:54:51;;;;;;;;;;;;;;;7.40;99.08;99224.03;5106641;27;20014;-84
2021/12/29 00:57:17;;;;;;;;;;;;;;;7.37;99.31;99227.56;5089159;28;19931;-84
2021/12/29 00:59:42;;;;;;;;;;;;;;;7.16;100.00;99233.84;5088475;28;20587;-84
2021/12/29 01:02:08;;;;;;;;;;;;;;;7.23;100.00;99232.94;5092916;28;20448;-84
2021/12/29 01:04:34;;;;;;;;;;;;;;;7.23;100.00;99232.03;5105392;28;19935;-85
2021/12/29 01:06:59;;;;;;;;;;;;;;;7.16;100.00;99232.09;5105363;27;19934;-84
2021/12/29 01:09:25;;;;;;;;;;;;;;;7.20;100.00;99229.44;5108074;28;19916;-84
2021/12/29 01:11:54;;;;;;;;;;;;;;;7.22;100.00;99230.31;5106741;28;19923;-84
2021/12/29 01:14:22;;;;;;;;;;;;;;;7.22;100.00;99233.81;5086238;28;20426;-85
2021/12/29 01:16:47;;;;;;;;;;;;;;;7.15;100.00;99229.50;5100640;28;20327;-85
2021/12/29 01:19:13;;;;;;;;;;;;;;;7.37;99.35;99239.78;5087229;28;19920;-84
2021/12/29 01:21:40;;;;;;;;;;;;;;;7.34;98.90;99224.97;5097180;28;19979;-84
2021/12/29 01:24:06;;;;;;;;;;;;;;;7.23;100.00;99217.19;5098257;28;19924;-85
2021/12/29 01:26:31;;;;;;;;;;;;;;;7.28;99.76;99217.16;5087151;28;20342;-85
2021/12/29 01:28:57;;;;;;;;;;;;;;;7.44;97.91;99210.84;5105439;28;19979;-84
2021/12/29 01:31:22;;;;;;;;;;;;;;;7.48;97.10;99209.94;5106791;28;19924;-85
2021/12/29 01:33:47;;;;;;;;;;;;;;;7.37;97.54;99208.31;5106817;28;19920;-84
2021/12/29 01:36:13;;;;;;;;;;;;;;;7.62;97.65;99212.44;5107020;28;19927;-85
2021/12/29 01:38:38;;;;;;;;;;;;;;;7.47;96.81;99213.44;5101155;28;19923;-84
2021/12/29 01:41:03;;;;;;;;;;;;;;;7.31;98.08;99210.13;5106069;28;20015;-84
2021/12/29 01:43:29;;;;;;;;;;;;;;;7.36;97.42;99210.06;5098704;28;19933;-84
2021/12/29 01:45:54;;;;;;;;;;;;;;;7.39;97.71;99214.44;5087680;28;19916;-84
2021/12/29 01:48:20;;;;;;;;;;;;;;;7.42;97.83;99219.66;5087007;28;20402;-84
2021/12/29 01:50:49;;;;;;;;;;;;;;;7.57;97.00;99210.72;5087185;28;19931;-85
2021/12/29 01:53:22;;;;;;;;;;;;;;;7.47;96.57;99209.97;5087381;28;19920;-85
2021/12/29 01:55:48;;;;;;;;;;;;;;;7.62;95.08;99198.44;5087734;28;19977;-84
2021/12/29 01:58:13;;;;;;;;;;;;;;;7.63;95.13;99203.69;5098191;28;20018;-84
2021/12/29 02:00:39;;;;;;;;;;;;;;;7.70;94.34;99207.94;5107778;28;20463;-84
2021/12/29 02:03:07;;;;;;;;;;;;;;;7.58;94.15;99200.22;5105197;28;19931;-84
2021/12/29 02:05:33;;;;;;;;;;;;;;;7.45;95.76;99201.25;5103892;28;20015;-84
2021/12/29 02:07:58;;;;;;;;;;;;;;;7.25;96.73;99204.06;5095409;28;20435;-85
2021/12/29 02:10:24;;;;;;;;;;;;;;;7.26;97.62;99208.41;5107727;28;20714;-84
2021/12/29 02:12:50;;;;;;;;;;;;;;;7.34;97.24;99210.09;5107313;28;19919;-84
2021/12/29 02:15:15;;;;;;;;;;;;;;;7.29;96.70;99213.63;5107016;28;20598;-84
2021/12/29 02:17:41;;;;;;;;;;;;;;;7.14;97.97;99207.66;5103913;28;19970;-84
2021/12/29 02:20:07;;;;;;;;;;;;;;;7.07;98.97;99200.69;5108863;28;19920;-84
2021/12/29 02:22:43;;;;;;;;;;;;;;;6.97;99.45;99199.06;5106790;28;20063;-83
2021/12/29 02:27:44;;;;;;;;;;;;;;;7.09;98.97;99205.94;5104673;28;19920;-83
2021/12/29 02:30:10;;;;;;;;;;;;;;;7.06;98.02;99203.34;5091396;28;19920;-83
2021/12/29 02:32:36;;;;;;;;;;;;;;;7.00;98.58;99196.41;5091099;28;19916;-82
2021/12/29 02:35:01;;;;;;;;;;;;;;;6.89;99.17;99195.59;5090773;28;20357;-83
2021/12/29 02:37:27;;;;;;;;;;;;;;;6.90;99.93;99199.97;5094163;28;19928;-83
2021/12/29 02:39:53;;;;;;;;;;;;;;;6.90;99.58;99198.22;5111514;28;19968;-84
2021/12/29 02:42:20;;;;;;;;;;;;;;;7.03;99.45;99195.50;5102727;28;19924;-84
2021/12/29 02:44:46;;;;;;;;;;;;;;;7.09;97.92;99201.59;5108820;28;19967;-84
2021/12/29 02:47:11;;;;;;;;;;;;;;;7.05;97.71;99199.84;5109634;27;19920;-84
2021/12/29 02:49:37;;;;;;;;;;;;;;;7.05;97.83;99193.75;5090523;28;19927;-84
2021/12/29 02:52:02;;;;;;;;;;;;;;;7.02;97.44;99191.16;5097263;28;20372;-83
2021/12/29 02:54:28;;;;;;;;;;;;;;;7.09;97.67;99187.56;5110657;28;20010;-83
2021/12/29 02:56:54;;;;;;;;;;;;;;;6.99;97.86;99184.16;5097144;28;19924;-83
2021/12/29 02:59:20;;;;;;;;;;;;;;;6.85;99.17;99189.53;5090605;28;19928;-84
2021/12/29 03:01:46;;;;;;;;;;;;;;;6.86;98.70;99195.63;5096468;28;19924;-84
2021/12/29 03:04:11;;;;;;;;;;;;;;;7.20;97.39;99200.59;5109795;28;20389;-84
2021/12/29 03:06:37;;;;;;;;;;;;;;;7.26;96.31;99193.56;5111150;28;19980;-83
2021/12/29 03:09:04;;;;;;;;;;;;;;;7.14;96.44;99197.16;5096813;28;20424;-84
2021/12/29 03:11:29;;;;;;;;;;;;;;;7.07;96.88;99197.22;5090289;28;20315;-84
2021/12/29 03:13:54;;;;;;;;;;;;;;;7.06;97.43;99200.72;5091958;28;19935;-84
2021/12/29 03:16:20;;;;;;;;;;;;;;;7.17;96.59;99205.00;5109949;28;19927;-84
2021/12/29 03:18:45;;;;;;;;;;;;;;;7.06;96.88;99200.72;5100043;28;20558;-84
2021/12/29 03:21:11;;;;;;;;;;;;;;;7.08;97.19;99196.34;5099592;28;19931;-83
2021/12/29 03:23:37;;;;;;;;;;;;;;;7.09;97.19;99195.44;5110232;28;20647;-84
2021/12/29 03:26:02;;;;;;;;;;;;;;;7.03;96.94;99195.50;5108863;28;20084;-83
2021/12/29 03:28:28;;;;;;;;;;;;;;;7.01;97.29;99186.78;5101869;28;20081;-83
2021/12/29 03:30:55;;;;;;;;;;;;;;;7.10;97.08;99195.44;5089516;28;19969;-83
2021/12/29 03:33:22;;;;;;;;;;;;;;;6.98;96.94;99185.94;5089792;28;19927;-83
2021/12/29 03:35:52;;;;;;;;;;;;;;;6.82;99.16;99193.03;5090044;28;19924;-84
2021/12/29 03:38:19;;;;;;;;;;;;;;;7.05;97.29;99178.00;5090843;28;20913;-84
2021/12/29 03:40:44;;;;;;;;;;;;;;;6.97;97.01;99197.28;5098818;28;19923;-82
2021/12/29 03:43:10;;;;;;;;;;;;;;;6.97;97.25;99192.06;5109297;28;19920;-82
2021/12/29 03:45:37;;;;;;;;;;;;;;;7.05;97.35;99202.47;5109667;28;20048;-83
2021/12/29 03:48:06;;;;;;;;;;;;;;;7.21;95.84;99202.34;5107014;27;20305;-85
2021/12/29 03:50:31;;;;;;;;;;;;;;;6.95;96.85;99203.44;5109201;28;19964;-85
2021/12/29 03:52:56;;;;;;;;;;;;;;;6.93;97.06;99197.34;5095127;27;19923;-85
2021/12/29 03:55:22;;;;;;;;;;;;;;;6.85;97.52;99204.41;5089521;28;19920;-84
2021/12/29 03:57:47;;;;;;;;;;;;;;;6.73;97.78;99197.50;5101071;28;19934;-84
2021/12/29 04:00:14;;;;;;;;;;;;;;;6.66;98.62;99183.56;5104466;28;20316;-85
2021/12/29 04:02:40;;;;;;;;;;;;;;;6.68;98.94;99187.03;5109111;28;19947;-83
2021/12/29 04:05:07;;;;;;;;;;;;;;;6.71;99.37;99183.53;5108020;28;20400;-85
2021/12/29 04:07:32;;;;;;;;;;;;;;;6.71;98.92;99181.78;5109336;28;19923;-84
2021/12/29 04:09:58;;;;;;;;;;;;;;;6.71;98.44;99178.28;5108209;27;19931;-84
2021/12/29 04:12:24;;;;;;;;;;;;;;;6.63;99.11;99179.22;5101595;28;19931;-84
2021/12/29 04:14:49;;;;;;;;;;;;;;;6.60;99.33;99179.22;5088651;28;19916;-86
2021/12/29 04:17:18;;;;;;;;;;;;;;;6.51;99.95;99178.44;5096269;28;20039;-83
2021/12/29 04:22:29;;;;;;;;;;;;;;;6.68;99.22;99180.94;5109149;28;20423;-88
2021/12/29 04:24:54;;;;;;;;;;;;;;;6.56;99.59;99184.50;5108276;28;20010;-86
2021/12/29 04:27:22;;;;;;;;;;;;;;;6.70;99.41;99182.66;5094162;28;20088;-86
2021/12/29 04:29:48;;;;;;;;;;;;;;;6.85;97.56;99188.66;5105808;28;19928;-86
2021/12/29 04:32:13;;;;;;;;;;;;;;;6.72;97.84;99180.00;5109298;28;20579;-88
2021/12/29 04:34:38;;;;;;;;;;;;;;;6.81;97.65;99183.44;5108861;28;19922;-87
2021/12/29 04:37:04;;;;;;;;;;;;;;;6.78;96.66;99180.84;5096191;28;19924;-85
2021/12/29 04:39:29;;;;;;;;;;;;;;;6.77;97.08;99181.72;5102516;28;20018;-85
2021/12/29 04:41:55;;;;;;;;;;;;;;;6.68;97.50;99173.06;5091680;28;19927;-86
2021/12/29 04:44:20;;;;;;;;;;;;;;;6.62;98.22;99174.84;5088075;28;20012;-86
2021/12/29 04:46:47;;;;;;;;;;;;;;;6.74;96.86;99176.50;5088570;28;19997;-84
2021/12/29 04:49:14;;;;;;;;;;;;;;;6.77;97.28;99168.63;5087584;28;20049;-86
2021/12/29 04:51:47;;;;;;;;;;;;;;;6.78;96.33;99172.09;5101228;28;19923;-84
2021/12/29 04:54:12;;;;;;;;;;;;;;;6.80;96.10;99170.34;5087524;28;20262;-84
2021/12/29 04:56:38;;;;;;;;;;;;;;;6.80;96.70;99165.97;5099088;28;19931;-84
2021/12/29 04:59:03;;;;;;;;;;;;;;;6.81;97.12;99164.22;5098379;28;19920;-84
2021/12/29 05:01:29;;;;;;;;;;;;;;;6.58;98.18;99152.16;5088105;28;19943;-85
2021/12/29 05:03:54;;;;;;;;;;;;;;;6.62;97.94;99150.38;5088503;28;19999;-85
2021/12/29 05:08:48;;;;;;;;;;;;;;;6.79;96.98;99152.88;5095706;28;19928;-83
2021/12/29 05:11:15;;;;;;;;;;;;;;;6.66;96.96;99148.59;5108228;28;20616;-83
2021/12/29 05:13:41;;;;;;;;;;;;;;;6.77;96.71;99146.78;5106468;28;20002;-82
2021/12/29 05:16:07;;;;;;;;;;;;;;;6.77;96.77;99149.41;5087431;28;19928;-83
2021/12/29 05:18:34;;;;;;;;;;;;;;;6.86;95.62;99146.72;5091280;28;19931;-83
2021/12/29 05:21:01;;;;;;;;;;;;;;;6.65;96.29;99136.41;5109114;27;19975;-81
2021/12/29 05:23:26;;;;;;;;;;;;;;;6.77;96.72;99136.31;5108424;28;19922;-82
2021/12/29 05:25:52;;;;;;;;;;;;;;;6.71;96.73;99136.34;5108514;28;19916;-83
2021/12/29 05:28:18;;;;;;;;;;;;;;;6.68;96.70;99136.38;5104859;28;19927;-82
2021/12/29 05:30:44;;;;;;;;;;;;;;;6.66;96.95;99132.88;5087889;28;20294;-84
2021/12/29 05:33:10;;;;;;;;;;;;;;;6.68;97.20;99131.13;5088096;28;19927;-84
2021/12/29 05:35:35;;;;;;;;;;;;;;;6.70;96.70;99131.97;5088458;28;19916;-84
2021/12/29 05:38:01;;;;;;;;;;;;;;;6.71;96.72;99129.34;5087054;28;19920;-85
2021/12/29 05:40:27;;;;;;;;;;;;;;;6.50;97.86;99126.91;5107460;28;20373;-84
2021/12/29 05:42:53;;;;;;;;;;;;;;;6.63;98.33;99134.66;5106952;28;20003;-84
2021/12/29 05:45:18;;;;;;;;;;;;;;;6.72;97.11;99135.44;5106858;28;19945;-84
2021/12/29 05:47:44;;;;;;;;;;;;;;;6.96;96.03;99139.63;5107417;28;19919;-84
2021/12/29 05:50:10;;;;;;;;;;;;;;;6.95;94.54;99132.63;5089132;28;20442;-84
2021/12/29 05:52:36;;;;;;;;;;;;;;;6.91;94.67;99136.19;5087434;28;19920;-85
2021/12/29 05:55:01;;;;;;;;;;;;;;;6.83;95.18;99136.25;5087786;28;19977;-83
2021/12/29 05:57:27;;;;;;;;;;;;;;;6.93;95.05;99129.16;5087953;28;19927;-84
2021/12/29 05:59:52;;;;;;;;;;;;;;;6.56;96.15;99132.94;5103055;28;19927;-84
2021/12/29 06:02:17;;;;;;;;;;;;;;;6.49;98.01;99128.66;5107999;28;20417;-84
2021/12/29 06:04:43;;;;;;;;;;;;;;;6.68;97.00;99129.38;5107851;28;19955;-84
2021/12/29 06:07:08;;;;;;;;;;;;;;;6.58;97.37;99125.97;5107768;28;19919;-83
2021/12/29 06:09:33;;;;;;;;;;;;;;;6.51;97.76;99126.88;5090948;28;19959;-84
2021/12/29 06:11:59;;;;;;;;;;;;;;;6.50;97.75;99127.75;5093682;28;19927;-84
2021/12/29 06:14:24;;;;;;;;;;;;;;;6.55;98.29;99139.09;5106898;28;20401;-85
2021/12/29 06:16:49;;;;;;;;;;;;;;;6.61;96.89;99138.16;5106819;28;20385;-85
2021/12/29 06:19:15;;;;;;;;;;;;;;;6.37;98.43;99131.38;5093228;28;20472;-85
2021/12/29 06:21:40;;;;;;;;;;;;;;;6.54;98.24;99139.09;5086912;28;19920;-85
2021/12/29 06:24:07;;;;;;;;;;;;;;;6.73;97.00;99145.06;5085807;28;19923;-85
2021/12/29 06:26:32;;;;;;;;;;;;;;;6.75;96.53;99151.16;5091185;28;19988;-86
2021/12/29 06:28:58;;;;;;;;;;;;;;;6.69;96.55;99156.44;5095885;28;19924;-85
2021/12/29 06:31:23;;;;;;;;;;;;;;;6.91;95.52;99142.28;5086972;28;19923;-86
2021/12/29 06:33:48;;;;;;;;;;;;;;;6.88;94.52;99149.31;5086700;28;19916;-85
2021/12/29 06:36:14;;;;;;;;;;;;;;;6.75;95.74;99148.53;5089079;28;20796;-86
2021/12/29 06:38:39;;;;;;;;;;;;;;;6.72;96.80;99144.19;5094621;28;20019;-85
2021/12/29 06:41:05;;;;;;;;;;;;;;;6.59;96.98;99151.28;5105213;28;19926;-85
2021/12/29 06:43:30;;;;;;;;;;;;;;;6.62;96.98;99148.63;5106098;28;20252;-86
2021/12/29 06:45:55;;;;;;;;;;;;;;;6.53;97.54;99158.31;5104694;28;20398;-85
2021/12/29 06:48:21;;;;;;;;;;;;;;;6.63;97.57;99163.47;5087403;28;19965;-86
2021/12/29 06:50:46;;;;;;;;;;;;;;;6.72;97.17;99174.75;5095140;28;20006;-86
2021/12/29 06:53:11;;;;;;;;;;;;;;;6.66;96.97;99173.09;5104758;28;19926;-85
2021/12/29 06:55:39;;;;;;;;;;;;;;;6.97;95.60;99163.22;5104384;28;19931;-86
2021/12/29 06:58:04;;;;;;;;;;;;;;;6.77;95.90;99170.38;5102359;27;19928;-87
2021/12/29 07:00:29;;;;;;;;;;;;;;;6.61;96.15;99164.38;5086795;28;19924;-86
2021/12/29 07:02:55;;;;;;;;;;;;;;;6.72;96.38;99167.78;5101816;28;19931;-87
2021/12/29 07:05:20;;;;;;;;;;;;;;;6.63;96.57;99166.09;5103144;28;19920;-87
2021/12/29 07:07:49;;;;;;;;;;;;;;;6.71;96.66;99175.66;5090072;28;19927;-86
2021/12/29 07:10:14;;;;;;;;;;;;;;;6.71;95.76;99180.91;5110959;28;19962;-87
2021/12/29 07:12:40;;;;;;;;;;;;;;;6.55;97.41;99178.41;5101053;28;19955;-86
2021/12/29 07:15:05;;;;;;;;;;;;;;;6.66;96.48;99177.44;5090577;28;19928;-86
2021/12/29 07:17:31;;;;;;;;;;;;;;;6.54;97.46;99179.28;5089323;28;20381;-86
2021/12/29 07:19:56;;;;;;;;;;;;;;;6.67;97.29;99176.56;5109053;28;20663;-84
2021/12/29 07:22:23;;;;;;;;;;;;;;;6.73;96.09;99182.63;5093467;28;20374;-83
2021/12/29 07:24:48;;;;;;;;;;;;;;;6.82;95.93;99185.16;5115585;27;20403;-83
2021/12/29 07:27:13;;;;;;;;;;;;;;;6.78;95.76;99186.09;5095874;28;19943;-83
2021/12/29 07:29:39;;;;;;;;;;;;;;;6.82;95.61;99187.78;5108296;27;19977;-84
2021/12/29 07:32:04;;;;;;;;;;;;;;;6.73;95.73;99181.75;5108683;27;19924;-84
2021/12/29 07:34:30;;;;;;;;;;;;;;;7.02;95.04;99184.16;5110767;28;20404;-84
2021/12/29 07:36:55;;;;;;;;;;;;;;;6.94;94.64;99189.47;5110536;28;19919;-84
2021/12/29 07:39:21;;;;;;;;;;;;;;;7.16;93.41;99179.63;5110121;28;19928;-84
2021/12/29 07:41:47;;;;;;;;;;;;;;;7.13;93.53;99179.66;5116707;27;20433;-83
2021/12/29 07:44:13;;;;;;;;;;;;;;;7.22;92.83;99178.72;5109894;28;19916;-84
2021/12/29 07:46:41;;;;;;;;;;;;;;;7.09;93.15;99177.97;5110223;28;19919;-84
2021/12/29 07:49:06;;;;;;;;;;;;;;;7.07;93.54;99182.34;5110210;28;19916;-83
2021/12/29 07:51:31;;;;;;;;;;;;;;;7.01;93.93;99192.03;5109650;28;19920;-84
2021/12/29 07:53:57;;;;;;;;;;;;;;;7.05;93.66;99186.75;5110154;28;19920;-84
2021/12/29 07:56:23;;;;;;;;;;;;;;;7.28;93.00;99178.66;5118316;27;19923;-83
2021/12/29 07:58:49;;;;;;;;;;;;;;;7.46;91.14;99184.59;5109439;28;19972;-83
2021/12/29 08:01:14;;;;;;;;;;;;;;;7.18;91.78;99184.88;5110025;28;19920;-84
2021/12/29 08:03:39;;;;;;;;;;;;;;;7.00;93.38;99178.06;5109848;28;19923;-84
2021/12/29 08:06:05;;;;;;;;;;;;;;;6.90;94.08;99182.50;5117128;27;20333;-85
2021/12/29 08:08:30;;;;;;;;;;;;;;;7.01;93.75;99179.78;5110101;28;20398;-85
2021/12/29 08:10:56;;;;;;;;;;;;;;;7.19;92.78;99177.88;5045387;27;19928;-85
2021/12/29 08:13:22;;;;;;;;;;;;;;;7.48;91.66;99177.59;5029130;28;19921;-84
2021/12/29 08:15:47;;;;;;;;;;;;;;;7.52;90.04;99176.66;5036707;28;20013;-84
2021/12/29 08:18:13;;;;;;;;;;;;;;;7.66;89.58;99180.03;5053353;28;20004;-84
2021/12/29 08:20:38;;;;;;;;;;;;;;;7.48;90.43;99174.97;5064548;28;19920;-84
2021/12/29 08:23:04;;;;;;;;;;;;;;;7.21;91.30;99178.72;5056122;28;19924;-84
2021/12/29 08:25:30;;;;;;;;;;;;;;;7.41;92.00;99189.88;5049060;28;19917;-83
2021/12/29 08:27:55;;;;;;;;;;;;;;;7.67;90.69;99180.88;5057670;28;20421;-82
2021/12/29 08:30:21;;;;;;;;;;;;;;;7.78;90.05;99181.59;5051856;28;20318;-84
2021/12/29 08:32:47;;;;;;;;;;;;;;;7.50;89.99;99186.31;5054952;28;19928;-84
2021/12/29 08:35:12;;;;;;;;;;;;;;;7.39;90.56;99186.41;5069376;28;19928;-83
2021/12/29 08:37:37;;;;;;;;;;;;;;;7.55;90.59;99186.25;5068902;28;19935;-82
2021/12/29 08:40:04;;;;;;;;;;;;;;;7.58;89.75;99179.22;5056688;28;20310;-82
2021/12/29 08:42:29;;;;;;;;;;;;;;;7.38;91.34;99189.06;5048763;28;19921;-84
2021/12/29 08:44:54;;;;;;;;;;;;;;;7.43;90.69;99187.25;5048390;28;19928;-83
2021/12/29 08:47:20;;;;;;;;;;;;;;;7.57;90.13;99184.47;5047728;28;20301;-84
2021/12/29 08:49:45;;;;;;;;;;;;;;;7.64;89.61;99184.41;5048262;28;19921;-81
2021/12/29 08:52:11;;;;;;;;;;;;;;;7.69;89.24;99185.22;5059529;28;20398;-84
2021/12/29 08:54:36;;;;;;;;;;;;;;;7.50;89.69;99181.06;5063101;28;20616;-82
2021/12/29 08:57:02;;;;;;;;;;;;;;;7.40;90.12;99177.69;5068320;28;19969;-83
2021/12/29 08:59:27;;;;;;;;;;;;;;;7.59;89.62;99175.72;5051284;28;20016;-86
2021/12/29 09:01:52;;;;;;;;;;;;;;;7.50;90.52;99173.19;5047592;28;19939;-84
2021/12/29 09:04:18;;;;;;;;;;;;;;;7.55;90.81;99176.63;5048095;28;19917;-84
2021/12/29 09:06:44;;;;;;;;;;;;;;;7.61;90.16;99176.56;5061424;28;20784;-84
2021/12/29 09:09:09;;;;;;;;;;;;;;;7.59;90.32;99178.34;5068112;28;20557;-85
2021/12/29 09:11:34;;;;;;;;;;;;;;;7.96;89.14;99166.53;5068442;28;20650;-85
2021/12/29 09:14:00;;;;;;;;;;;;;;;8.17;88.61;99162.72;5067605;28;20688;-85
2021/12/29 09:16:28;;;;;;;;;;;;;;;7.96;87.13;99156.03;5067070;28;21337;-85
2021/12/29 09:18:53;;;;;;;;;;;;;;;7.98;87.85;99149.00;5067715;28;20043;-84
2021/12/29 09:21:19;;;;;;;;;;;;;;;7.92;88.77;99138.56;5067978;28;19923;-85
2021/12/29 09:23:45;;;;;;;;;;;;;;;8.04;87.61;99134.00;5067972;28;20283;-84
2021/12/29 09:26:11;;;;;;;;;;;;;;;8.34;86.72;99123.97;5067864;28;19920;-85
2021/12/29 09:28:37;;;;;;;;;;;;;;;8.40;85.99;99121.25;5067338;28;20141;-85
2021/12/29 09:31:02;;;;;;;;;;;;;;;8.15;86.99;99123.34;5067812;28;19917;-84
2021/12/29 09:33:27;;;;;;;;;;;;;;;8.16;86.77;99117.22;5066665;28;20014;-85
2021/12/29 09:35:57;;;;;;;;;;;;;;;8.12;87.02;99120.75;5062239;28;19974;-86
2021/12/29 09:38:23;;;;;;;;;;;;;;;8.30;86.38;99118.78;5065168;28;19956;-84
2021/12/29 09:40:49;;;;;;;;;;;;;;;8.45;85.70;99117.69;5058658;28;19929;-83
2021/12/29 09:43:14;;;;;;;;;;;;;;;8.57;85.41;99121.00;5066217;28;20347;-83
2021/12/29 09:45:41;;;;;;;;;;;;;;;8.65;84.50;99118.25;5059604;28;19971;-82
2021/12/29 09:48:06;;;;;;;;;;;;;;;8.70;83.57;99112.94;5047633;28;19925;-82
2021/12/29 09:50:32;;;;;;;;;;;;;;;8.69;83.54;99112.03;5049005;28;19999;-81
2021/12/29 09:52:58;;;;;;;;;;;;;;;8.88;82.94;99109.09;5052540;28;19964;-82
2021/12/29 09:55:24;;;;;;;;;;;;;;;8.72;82.88;99103.25;5049411;28;19924;-82
2021/12/29 09:57:51;;;;;;;;;;;;;;;8.49;83.80;99109.72;5049749;28;19956;-83
2021/12/29 10:00:21;;;;;;;;;;;;;;;8.49;84.19;99093.97;5046174;28;20043;-81
2021/12/29 10:02:47;;;;;;;;;;;;;;;8.58;83.71;99098.22;5046818;28;19921;-82
2021/12/29 10:05:12;;;;;;;;;;;;;;;8.74;83.17;99093.56;5045693;28;19925;-81
2021/12/29 10:07:38;;;;;;;;;;;;;;;8.62;83.34;99081.50;5046466;28;19927;-82
2021/12/29 10:10:14;;;;;;;;;;;;;;;8.58;83.54;99080.66;5045563;28;20012;-82
2021/12/29 10:12:43;;;;;;;;;;;;;;;8.61;82.68;99082.38;5045710;28;19921;-82
2021/12/29 10:15:09;;;;;;;;;;;;;;;8.64;83.16;99078.84;5046352;28;20430;-82
2021/12/29 10:17:34;;;;;;;;;;;;;;;8.63;82.34;99072.69;5045538;28;20023;-83
2021/12/29 10:20:00;;;;;;;;;;;;;;;8.54;83.18;99068.50;5046812;28;20373;-83
2021/12/29 10:22:26;;;;;;;;;;;;;;;8.40;83.52;99063.44;5046449;28;20453;-83
2021/12/29 10:25:05;;;;;;;;;;;;;;;8.56;82.92;99061.44;5046833;28;19920;-83
2021/12/29 10:27:31;;;;;;;;;;;;;;;8.37;84.44;99052.97;5046835;28;19920;-83
2021/12/29 10:29:56;;;;;;;;;;;;;;;8.39;84.25;99050.31;5046463;28;19917;-83
2021/12/29 10:32:22;;;;;;;;;;;;;;;8.35;84.60;99046.84;5046233;28;20856;-83
2021/12/29 10:34:52;;;;;;;;;;;;;;;8.19;85.06;99048.00;5046239;28;19968;-83
2021/12/29 10:37:20;;;;;;;;;;;;;;;8.25;84.77;99048.75;5046358;28;19943;-82
2021/12/29 10:39:47;;;;;;;;;;;;;;;8.15;85.03;99046.31;5046233;28;19920;-83
2021/12/29 10:42:12;;;;;;;;;;;;;;;8.07;85.73;99049.91;5049011;28;19943;-83
2021/12/29 10:44:40;;;;;;;;;;;;;;;8.08;85.38;99045.53;5050579;28;20367;-82
2021/12/29 10:47:19;;;;;;;;;;;;;;;8.20;84.97;99052.34;5050127;28;19960;-83
2021/12/29 10:49:50;;;;;;;;;;;;;;;8.22;84.56;99047.94;5049913;28;19987;-82
2021/12/29 10:52:16;;;;;;;;;;;;;;;8.48;83.10;99042.31;5049681;28;19917;-82
2021/12/29 10:54:41;;;;;;;;;;;;;;;8.56;82.72;99050.91;5050202;28;19940;-83
2021/12/29 10:57:12;;;;;;;;;;;;;;;8.74;82.19;99040.97;5050061;28;20023;-82
2021/12/29 10:59:41;;;;;;;;;;;;;;;8.68;81.52;99043.69;5050152;28;19925;-83
2021/12/29 11:02:07;;;;;;;;;;;;;;;8.80;81.76;99043.47;5049950;28;19920;-83
2021/12/29 11:04:33;;;;;;;;;;;;;;;8.88;80.88;99046.84;5049795;28;19917;-82
2021/12/29 11:07:01;;;;;;;;;;;;;;;8.90;81.10;99031.91;5049421;28;19928;-82
2021/12/29 11:09:32;;;;;;;;;;;;;;;8.84;81.50;99041.69;5048851;28;20562;-82
2021/12/29 11:11:57;;;;;;;;;;;;;;;8.60;81.29;99015.81;5049633;28;20078;-83
2021/12/29 11:14:31;;;;;;;;;;;;;;;8.69;81.46;99032.28;5048720;28;20023;-83
2021/12/29 11:17:01;;;;;;;;;;;;;;;8.85;82.06;99025.88;5049244;28;20069;-83
2021/12/29 11:19:26;;;;;;;;;;;;;;;8.85;81.67;99019.72;5049507;28;20402;-83
2021/12/29 11:21:51;;;;;;;;;;;;;;;8.83;81.97;99014.50;5049262;28;19925;-83
2021/12/29 11:24:17;;;;;;;;;;;;;;;8.72;81.46;99006.81;5049674;28;19925;-83
2021/12/29 11:26:43;;;;;;;;;;;;;;;8.63;82.09;99003.50;5049391;28;19927;-83
2021/12/29 11:29:09;;;;;;;;;;;;;;;8.78;81.96;99006.69;5049107;28;19928;-83
2021/12/29 11:31:40;;;;;;;;;;;;;;;8.80;81.16;99009.28;5048559;28;19924;-83
2021/12/29 11:34:37;;;;;;;;;;;;;;;8.05;84.17;99017.53;5048599;28;19928;-83
2021/12/29 11:37:08;;;;;;;;;;;;;;;8.39;84.12;99000.38;5036310;28;19920;-82
2021/12/29 11:39:35;;;;;;;;;;;;;;;8.39;84.28;99005.63;5049144;28;19971;-83
2021/12/29 11:42:01;;;;;;;;;;;;;;;8.61;82.84;99000.88;5048984;28;20098;-82
2021/12/29 11:44:26;;;;;;;;;;;;;;;8.57;83.24;99004.44;5049358;28;20318;-82
2021/12/29 11:46:52;;;;;;;;;;;;;;;8.67;82.62;98998.16;5049705;28;19927;-83
2021/12/29 11:49:18;;;;;;;;;;;;;;;8.76;82.22;98994.50;5049150;28;20299;-84
2021/12/29 11:52:05;;;;;;;;;;;;;;;8.78;81.99;99000.56;5048918;28;19930;-83
2021/12/29 11:54:38;;;;;;;;;;;;;;;8.75;82.19;99001.50;5048916;28;19920;-83
2021/12/29 11:57:11;;;;;;;;;;;;;;;8.57;82.30;99005.34;5048676;28;19939;-83
2021/12/29 11:59:37;;;;;;;;;;;;;;;8.65;82.53;99015.72;5048984;28;20011;-83
2021/12/29 12:02:03;;;;;;;;;;;;;;;8.70;82.60;99005.13;5048856;28;20004;-83
2021/12/29 12:04:28;;;;;;;;;;;;;;;8.31;83.91;99005.75;5048785;28;19913;-83
2021/12/29 12:07:02;;;;;;;;;;;;;;;8.47;83.70;99003.75;5048501;28;19964;-84
2021/12/29 12:09:27;;;;;;;;;;;;;;;8.53;84.18;99003.66;5048807;28;19924;-83
2021/12/29 12:11:54;;;;;;;;;;;;;;;8.64;82.99;98997.34;5048686;28;19924;-84
2021/12/29 12:14:43;;;;;;;;;;;;;;;8.67;82.91;98998.16;5048541;28;19921;-84
2021/12/29 12:17:13;;;;;;;;;;;;;;;8.70;82.12;99003.34;5044994;28;20806;-84
2021/12/29 12:19:39;;;;;;;;;;;;;;;8.64;82.73;98997.34;5048884;28;20003;-84
2021/12/29 12:22:09;;;;;;;;;;;;;;;8.64;82.78;99007.88;5048298;28;20730;-83
2021/12/29 12:24:37;;;;;;;;;;;;;;;8.73;83.31;99007.69;5048477;28;20394;-84
2021/12/29 12:27:08;;;;;;;;;;;;;;;8.71;83.03;99010.34;5048296;28;19921;-85
2021/12/29 12:29:35;;;;;;;;;;;;;;;8.77;82.48;99010.25;5047573;28;19921;-85
2021/12/29 12:32:27;;;;;;;;;;;;;;;8.78;83.10;99008.47;5048336;28;19923;-85
2021/12/29 12:34:57;;;;;;;;;;;;;;;8.69;83.01;99020.00;5046622;28;19921;-84
2021/12/29 12:37:36;;;;;;;;;;;;;;;8.70;83.28;99011.25;5048268;28;19927;-85
2021/12/29 12:40:14;;;;;;;;;;;;;;;8.74;83.23;99009.41;5048101;28;19923;-84
2021/12/29 12:42:40;;;;;;;;;;;;;;;8.74;83.63;99005.03;5048214;28;20394;-85
2021/12/29 12:45:23;;;;;;;;;;;;;;;8.72;83.48;99008.56;5044800;28;19925;-83
2021/12/29 12:47:49;;;;;;;;;;;;;;;8.69;83.66;99014.75;5036949;28;19917;-84
2021/12/29 12:50:25;;;;;;;;;;;;;;;8.81;83.54;99010.19;5028391;28;20316;-84
2021/12/29 12:52:51;;;;;;;;;;;;;;;8.69;84.03;99004.22;5028168;28;20023;-82
2021/12/29 12:55:17;;;;;;;;;;;;;;;8.75;83.95;99000.63;5027343;28;20012;-83
2021/12/29 12:57:48;;;;;;;;;;;;;;;8.77;83.74;99004.97;5028271;28;19932;-84
2021/12/29 13:00:16;;;;;;;;;;;;;;;8.86;83.82;99003.06;5027447;28;19928;-85
2021/12/29 13:02:50;;;;;;;;;;;;;;;8.87;83.53;98999.53;5032595;28;20061;-84